createdAt,value
2022-08-06T00:02:08.473Z,71.60
2022-08-06T00:07:08.777Z,71.80
2022-08-06T00:12:10.826Z,71.49
2022-08-06T00:17:08.215Z,70.69
2022-08-06T00:22:08.160Z,69.98
2022-08-06T00:27:12.225Z,69.78
2022-08-06T00:32:21.517Z,69.01
2022-08-06T00:37:18.822Z,68.31
2022-08-06T00:42:07.872Z,67.20
2022-08-06T00:47:11.844Z,67.23
2022-08-06T00:52:08.769Z,66.43
2022-08-06T00:57:10.623Z,65.82
2022-08-06T01:02:09.975Z,64.55
2022-08-06T01:07:09.099Z,64.45
2022-08-06T01:12:08.601Z,64.65
2022-08-06T01:17:18.834Z,65.69
2022-08-06T01:22:31.368Z,65.78
2022-08-06T01:27:08.298Z,65.96
2022-08-06T01:32:07.239Z,65.75
2022-08-06T01:37:07.147Z,65.49
2022-08-06T01:42:07.093Z,66.19
2022-08-06T01:47:15.644Z,66.49
2022-08-06T01:52:14.899Z,68.44
2022-08-06T01:57:07.813Z,69.28
2022-08-06T02:02:07.082Z,70.28
2022-08-06T02:07:06.790Z,70.72
2022-08-06T02:12:07.751Z,71.43
2022-08-06T02:17:13.894Z,71.36
2022-08-06T02:22:06.587Z,70.95
2022-08-06T02:27:06.526Z,71.50
2022-08-06T02:32:06.451Z,71.70
2022-08-06T02:37:06.378Z,71.39
2022-08-06T02:42:06.319Z,70.99
2022-08-06T02:47:06.247Z,70.89
2022-08-06T02:52:18.015Z,70.92
2022-08-06T02:57:07.143Z,70.82
2022-08-06T03:02:06.134Z,71.23
2022-08-06T03:07:06.684Z,71.36
2022-08-06T03:12:29.253Z,71.56
2022-08-06T03:17:06.887Z,72.07
2022-08-06T03:22:05.802Z,72.21
2022-08-06T03:27:05.731Z,73.01
2022-08-06T03:32:24.739Z,72.65
2022-08-06T03:37:08.205Z,72.94
2022-08-06T03:42:07.934Z,72.74
2022-08-06T03:47:05.466Z,72.98
2022-08-06T03:52:05.407Z,72.68
2022-08-06T03:57:07.846Z,73.42
2022-08-06T04:02:05.287Z,73.38
2022-08-06T04:07:05.200Z,73.18
2022-08-06T04:12:36.869Z,72.98
2022-08-06T04:17:06.109Z,72.78
2022-08-06T04:23:00.037Z,73.69
2022-08-06T04:27:09.548Z,74.74
2022-08-06T04:32:18.922Z,74.23
2022-08-06T04:37:05.833Z,74.33
2022-08-06T04:42:05.937Z,74.60
2022-08-06T04:47:04.705Z,74.09
2022-08-06T04:52:35.928Z,74.26
2022-08-06T04:57:21.566Z,73.76
2022-08-06T05:02:07.755Z,73.28
2022-08-06T05:07:04.928Z,71.30
2022-08-06T05:12:04.588Z,70.55
2022-08-06T05:17:04.299Z,69.14
2022-08-06T05:22:11.300Z,69.18
2022-08-06T05:27:04.166Z,69.58
2022-08-06T05:32:04.107Z,68.40
2022-08-06T05:37:04.039Z,64.19
2022-08-06T05:42:03.965Z,61.85
2022-08-06T05:47:03.894Z,58.86
2022-08-06T05:52:03.837Z,55.44
2022-08-06T05:57:04.590Z,54.04
2022-08-06T06:02:03.707Z,52.39
2022-08-06T06:07:04.845Z,50.59
2022-08-06T06:12:03.622Z,47.82
2022-08-06T06:17:03.504Z,45.73
2022-08-06T06:22:03.450Z,44.06
2022-08-06T06:27:03.387Z,42.93
2022-08-06T06:32:07.901Z,43.87
2022-08-06T06:37:04.272Z,44.80
2022-08-06T06:42:03.189Z,43.65
2022-08-06T06:47:03.123Z,44.26
2022-08-06T06:52:08.982Z,44.04
2022-08-06T06:57:02.987Z,44.56
2022-08-06T07:02:11.432Z,44.28
2022-08-06T07:07:09.214Z,44.46
2022-08-06T07:12:04.202Z,42.85
2022-08-06T07:17:43.689Z,42.44
2022-08-06T07:22:03.707Z,41.21
2022-08-06T07:27:03.430Z,41.31
2022-08-06T07:32:02.551Z,41.21
2022-08-06T07:37:02.468Z,39.67
2022-08-06T07:42:10.913Z,39.00
2022-08-06T07:47:23.881Z,40.13
2022-08-06T07:52:03.324Z,39.02
2022-08-06T07:57:02.874Z,40.08
2022-08-06T08:02:02.275Z,41.41
2022-08-06T08:07:02.084Z,41.99
2022-08-06T08:12:25.686Z,42.40
2022-08-06T08:17:02.981Z,44.01
2022-08-06T08:22:01.902Z,42.77
2022-08-06T08:27:05.151Z,41.49
2022-08-06T08:32:05.263Z,41.75
2022-08-06T08:37:02.725Z,42.24
2022-08-06T08:42:02.670Z,41.35
2022-08-06T08:47:01.573Z,42.58
2022-08-06T08:52:01.514Z,41.65
2022-08-06T08:57:06.465Z,41.83
2022-08-06T09:02:02.483Z,40.62
2022-08-06T09:07:01.319Z,39.78
2022-08-06T09:12:03.713Z,41.73
2022-08-06T09:17:02.237Z,40.08
2022-08-06T09:22:01.440Z,38.67
2022-08-06T09:27:45.161Z,39.86
2022-08-06T09:32:02.054Z,40.36
2022-08-06T09:37:05.082Z,39.88
2022-08-06T09:42:00.874Z,41.23
2022-08-06T09:47:00.803Z,41.75
2022-08-06T09:52:00.754Z,40.96
2022-08-06T09:57:00.672Z,40.75
2022-08-06T10:02:00.924Z,41.15
2022-08-06T10:07:00.534Z,42.71
2022-08-06T10:12:00.476Z,43.12
2022-08-06T10:17:00.403Z,42.01
2022-08-06T10:22:00.350Z,40.99
2022-08-06T10:27:00.278Z,39.06
2022-08-06T10:32:00.221Z,38.87
2022-08-06T10:37:00.163Z,40.14
2022-08-06T10:42:03.868Z,39.94
2022-08-06T10:47:00.029Z,38.73
2022-08-06T10:51:59.972Z,38.53
2022-08-06T10:57:01.478Z,40.34
2022-08-06T11:01:59.875Z,41.67
2022-08-06T11:06:59.795Z,37.17
2022-08-06T11:12:05.621Z,34.42
2022-08-06T11:16:59.663Z,35.00
2022-08-06T11:22:03.047Z,36.74
2022-08-06T11:27:02.025Z,37.58
2022-08-06T11:32:00.493Z,38.18
2022-08-06T11:37:10.806Z,36.48
2022-08-06T11:42:00.367Z,36.59
2022-08-06T11:46:59.266Z,36.01
2022-08-06T11:52:04.198Z,37.70
2022-08-06T11:56:59.122Z,37.58
2022-08-06T12:01:59.153Z,37.98
2022-08-06T12:06:58.985Z,37.30
2022-08-06T12:11:58.925Z,37.92
2022-08-06T12:17:02.640Z,37.34
2022-08-06T12:21:58.845Z,38.23
2022-08-06T12:26:58.727Z,37.34
2022-08-06T12:31:58.670Z,37.64
2022-08-06T12:36:58.582Z,37.86
2022-08-06T12:41:58.521Z,38.05
2022-08-06T12:46:58.459Z,37.64
2022-08-06T12:51:58.410Z,38.33
2022-08-06T12:56:58.317Z,38.15
2022-08-06T13:02:10.656Z,38.03
2022-08-06T13:06:59.219Z,38.23
2022-08-06T13:11:58.131Z,38.65
2022-08-06T13:16:58.054Z,38.39
2022-08-06T13:21:58.355Z,38.39
2022-08-06T13:26:57.937Z,38.78
2022-08-06T13:32:00.465Z,39.40
2022-08-06T13:36:57.793Z,40.02
2022-08-06T13:42:02.511Z,40.02
2022-08-06T13:46:58.694Z,40.31
2022-08-06T13:51:58.638Z,39.82
2022-08-06T13:56:57.555Z,40.52
2022-08-06T14:01:57.506Z,39.92
2022-08-06T14:06:58.765Z,39.32
2022-08-06T14:11:58.498Z,40.63
2022-08-06T14:16:57.314Z,39.24
2022-08-06T14:21:57.257Z,39.44
2022-08-06T14:26:57.165Z,39.24
2022-08-06T14:31:58.148Z,39.73
2022-08-06T14:36:57.037Z,39.73
2022-08-06T14:41:56.991Z,39.94
2022-08-06T14:46:59.700Z,39.34
2022-08-06T14:52:23.493Z,39.16
2022-08-06T14:56:57.813Z,38.86
2022-08-06T15:01:56.788Z,38.68
2022-08-06T15:06:58.613Z,39.28
2022-08-06T15:12:00.151Z,40.17
2022-08-06T15:17:01.500Z,40.08
2022-08-06T15:21:57.825Z,39.59
2022-08-06T15:26:56.404Z,39.99
2022-08-06T15:32:02.273Z,39.89
2022-08-06T15:37:02.042Z,39.89
2022-08-06T15:41:56.212Z,39.69
2022-08-06T15:46:56.135Z,39.61
2022-08-06T15:52:01.335Z,40.51
2022-08-06T15:56:55.997Z,39.81
2022-08-06T16:02:05.335Z,39.31
2022-08-06T16:06:55.864Z,39.52
2022-08-06T16:11:55.805Z,39.53
2022-08-06T16:16:55.734Z,38.83
2022-08-06T16:21:55.677Z,39.83
2022-08-06T16:26:58.067Z,39.73
2022-08-06T16:31:55.570Z,39.33
2022-08-06T16:36:55.482Z,38.94
2022-08-06T16:41:58.768Z,39.43
2022-08-06T16:46:55.361Z,39.73
2022-08-06T16:52:44.557Z,39.85
2022-08-06T16:56:56.242Z,39.65
2022-08-06T17:02:13.354Z,40.25
2022-08-06T17:06:56.114Z,40.15
2022-08-06T17:11:58.334Z,40.45
2022-08-06T17:16:54.971Z,40.25
2022-08-06T17:21:59.201Z,40.37
2022-08-06T17:26:54.826Z,40.17
2022-08-06T17:31:57.499Z,40.37
2022-08-06T17:36:54.713Z,40.37
2022-08-06T17:41:54.622Z,40.09
2022-08-06T17:46:54.563Z,40.69
2022-08-06T17:51:54.493Z,40.69
2022-08-06T17:56:54.443Z,40.49
2022-08-06T18:01:54.361Z,39.91
2022-08-06T18:06:54.341Z,40.61
2022-08-06T18:11:54.243Z,40.73
2022-08-06T18:16:54.178Z,40.83
2022-08-06T18:21:54.101Z,41.43
2022-08-06T18:26:54.041Z,41.75
2022-08-06T18:31:59.812Z,41.95
2022-08-06T18:36:53.923Z,42.25
2022-08-06T18:41:57.682Z,42.37
2022-08-06T18:46:55.498Z,41.77
2022-08-06T18:51:54.166Z,42.69
2022-08-06T18:56:54.676Z,42.59
2022-08-06T19:01:53.639Z,42.81
2022-08-06T19:06:53.526Z,43.61
2022-08-06T19:11:53.463Z,44.01
2022-08-06T19:16:53.413Z,44.84
2022-08-06T19:21:53.325Z,45.14
2022-08-06T19:26:53.271Z,45.86
2022-08-06T19:31:53.203Z,45.86
2022-08-06T19:36:53.137Z,46.59
2022-08-06T19:42:00.353Z,47.32
2022-08-06T19:46:56.610Z,48.14
2022-08-06T19:52:02.416Z,49.15
2022-08-06T19:56:53.907Z,49.87
2022-08-06T20:02:08.242Z,50.20
2022-08-06T20:07:00.891Z,50.93
2022-08-06T20:12:03.984Z,50.73
2022-08-06T20:16:53.663Z,51.76
2022-08-06T20:21:52.525Z,52.46
2022-08-06T20:27:01.007Z,52.99
2022-08-06T20:31:55.450Z,53.62
2022-08-06T20:36:52.346Z,54.12
2022-08-06T20:42:02.182Z,54.35
2022-08-06T20:47:44.396Z,54.85
2022-08-06T20:51:53.176Z,55.18
2022-08-06T20:56:52.090Z,55.18
2022-08-06T21:01:52.017Z,55.51
2022-08-06T21:06:53.025Z,55.71
2022-08-06T21:11:51.900Z,55.94
2022-08-06T21:16:55.494Z,56.25
2022-08-06T21:21:51.758Z,56.88
2022-08-06T21:26:51.892Z,57.08
2022-08-06T21:31:52.589Z,57.18
2022-08-06T21:36:51.575Z,57.61
2022-08-06T21:41:58.385Z,57.81
2022-08-06T21:46:58.580Z,58.14
2022-08-06T21:51:51.359Z,58.55
2022-08-06T21:56:51.312Z,58.78
2022-08-06T22:02:09.842Z,59.08
2022-08-06T22:06:53.249Z,59.52
2022-08-06T22:12:39.594Z,59.52
2022-08-06T22:16:54.324Z,59.44
2022-08-06T22:21:51.679Z,60.15
2022-08-06T22:26:56.279Z,59.85
2022-08-06T22:31:55.924Z,60.35
2022-08-06T22:36:51.648Z,61.09
2022-08-06T22:42:06.262Z,60.99
2022-08-06T22:46:51.674Z,61.93
2022-08-06T22:51:51.643Z,61.73
2022-08-06T22:57:04.692Z,61.73
2022-08-06T23:02:06.958Z,61.86
2022-08-06T23:06:51.652Z,62.40
2022-08-06T23:11:59.198Z,62.60
2022-08-06T23:16:50.257Z,62.90
2022-08-06T23:22:02.169Z,63.01
2022-08-06T23:26:51.155Z,63.21
2022-08-06T23:31:50.040Z,63.34
2022-08-06T23:36:54.543Z,63.24
2022-08-06T23:42:01.288Z,63.64
2022-08-06T23:46:57.075Z,63.87
2022-08-06T23:52:04.123Z,64.18
2022-08-06T23:56:52.888Z,64.48
